Pulaski, Tennessee
Current Conditions -  °F | °C
As of 9:35 AM on Friday 28 Nov 2014 (Local Time) from KMRC Reporting Station
Clear Clear  
Wind Chill: 30°   Ceiling: Unl
Heat Index: 36°   Visibility: 9mi
Dew Point: 27°   Wind: 7mph
Humidity: 70%   Direction: 120°ESE
Pressure: 30.41"   Gusts: NA
Location:  35.2°N, 87.03°W
Report Text: KMRC 281535Z AUTO 12006KT 9SM CLR 02/M03 A3041 RMK
Loading
Personal Weather Stations






























Interactive Weather Map New forecast layout! Learn more

10-Day Weather Forecast

Advertisements
Track Severe Weather on mobile